sensor_id;sensor_type;location;lat;lon;timestamp;P1;P2;P0
46885;PMS5003;32622;48.202;11.326;2023-09-19T00:00:43;22;19;
46885;PMS5003;32622;48.202;11.326;2023-09-19T00:02:46;23;20;
46885;PMS5003;32622;48.202;11.326;2023-09-19T00:04:53;23;20;
46885;PMS5003;32622;48.202;11.326;2023-09-19T00:06:55;23;20;
46885;PMS5003;32622;48.202;11.326;2023-09-19T00:08:57;24;21;
46885;PMS5003;32622;48.202;11.326;2023-09-19T00:10:59;24;21;
46885;PMS5003;32622;48.202;11.326;2023-09-19T00:13:02;24;21;
46885;PMS5003;32622;48.202;11.326;2023-09-19T00:15:05;23;20;
46885;PMS5003;32622;48.202;11.326;2023-09-19T00:17:08;23;20;
46885;PMS5003;32622;48.202;11.326;2023-09-19T00:19:11;23;20;
46885;PMS5003;32622;48.202;11.326;2023-09-19T00:21:13;21;19;
46885;PMS5003;32622;48.202;11.326;2023-09-19T00:23:15;21;19;
46885;PMS5003;32622;48.202;11.326;2023-09-19T00:25:18;21;19;
46885;PMS5003;32622;48.202;11.326;2023-09-19T00:27:20;22;19;
46885;PMS5003;32622;48.202;11.326;2023-09-19T00:29:22;22;19;
46885;PMS5003;32622;48.202;11.326;2023-09-19T00:31:24;22;19;
46885;PMS5003;32622;48.202;11.326;2023-09-19T00:33:26;21;19;
46885;PMS5003;32622;48.202;11.326;2023-09-19T00:35:28;21;19;
46885;PMS5003;32622;48.202;11.326;2023-09-19T00:37:30;21;19;
46885;PMS5003;32622;48.202;11.326;2023-09-19T00:39:32;21;19;
46885;PMS5003;32622;48.202;11.326;2023-09-19T00:41:35;21;19;
46885;PMS5003;32622;48.202;11.326;2023-09-19T00:43:37;21;19;
46885;PMS5003;32622;48.202;11.326;2023-09-19T00:45:39;20;19;
46885;PMS5003;32622;48.202;11.326;2023-09-19T00:47:46;20;19;
46885;PMS5003;32622;48.202;11.326;2023-09-19T00:49:50;20;19;
46885;PMS5003;32622;48.202;11.326;2023-09-19T00:51:52;20;19;
46885;PMS5003;32622;48.202;11.326;2023-09-19T00:53:54;20;19;
46885;PMS5003;32622;48.202;11.326;2023-09-19T00:55:56;20;19;
46885;PMS5003;32622;48.202;11.326;2023-09-19T00:57:59;19;19;
46885;PMS5003;32622;48.202;11.326;2023-09-19T01:00:02;19;19;
46885;PMS5003;32622;48.202;11.326;2023-09-19T01:02:04;19;19;
46885;PMS5003;32622;48.202;11.326;2023-09-19T01:04:07;18;18;
46885;PMS5003;32622;48.202;11.326;2023-09-19T01:06:10;18;18;
46885;PMS5003;32622;48.202;11.326;2023-09-19T01:08:12;18;18;
46885;PMS5003;32622;48.202;11.326;2023-09-19T01:10:16;17;17;
46885;PMS5003;32622;48.202;11.326;2023-09-19T01:12:22;17;17;
46885;PMS5003;32622;48.202;11.326;2023-09-19T01:14:34;17;17;
46885;PMS5003;32622;48.202;11.326;2023-09-19T01:16:50;17;17;
46885;PMS5003;32622;48.202;11.326;2023-09-19T01:19:15;17;17;
46885;PMS5003;32622;48.202;11.326;2023-09-19T01:21:44;17;17;
46885;PMS5003;32622;48.202;11.326;2023-09-19T01:24:16;17;17;
46885;PMS5003;32622;48.202;11.326;2023-09-19T01:26:42;16;16;
46885;PMS5003;32622;48.202;11.326;2023-09-19T01:29:13;16;16;
46885;PMS5003;32622;48.202;11.326;2023-09-19T01:31:24;16;16;
46885;PMS5003;32622;48.202;11.326;2023-09-19T01:33:53;17;17;
46885;PMS5003;32622;48.202;11.326;2023-09-19T01:35:56;17;17;
46885;PMS5003;32622;48.202;11.326;2023-09-19T01:37:58;18;18;
46885;PMS5003;32622;48.202;11.326;2023-09-19T01:40:01;18;18;
46885;PMS5003;32622;48.202;11.326;2023-09-19T01:42:07;18;18;
46885;PMS5003;32622;48.202;11.326;2023-09-19T01:44:19;19;19;
46885;PMS5003;32622;48.202;11.326;2023-09-19T01:46:28;19;19;
46885;PMS5003;32622;48.202;11.326;2023-09-19T01:48:35;18;18;
46885;PMS5003;32622;48.202;11.326;2023-09-19T01:50:44;17;17;
46885;PMS5003;32622;48.202;11.326;2023-09-19T01:52:54;17;17;
46885;PMS5003;32622;48.202;11.326;2023-09-19T01:55:01;17;17;
46885;PMS5003;32622;48.202;11.326;2023-09-19T01:57:09;18;17;
46885;PMS5003;32622;48.202;11.326;2023-09-19T01:59:21;18;17;
46885;PMS5003;32622;48.202;11.326;2023-09-19T02:01:26;18;17;
46885;PMS5003;32622;48.202;11.326;2023-09-19T02:03:29;17;16;
46885;PMS5003;32622;48.202;11.326;2023-09-19T02:05:33;17;16;
46885;PMS5003;32622;48.202;11.326;2023-09-19T02:07:35;17;16;
46885;PMS5003;32622;48.202;11.326;2023-09-19T02:09:37;17;16;
46885;PMS5003;32622;48.202;11.326;2023-09-19T02:11:39;17;16;
46885;PMS5003;32622;48.202;11.326;2023-09-19T02:13:41;17;16;
46885;PMS5003;32622;48.202;11.326;2023-09-19T02:15:44;17;16;
46885;PMS5003;32622;48.202;11.326;2023-09-19T02:17:47;17;16;
46885;PMS5003;32622;48.202;11.326;2023-09-19T02:19:49;17;16;
46885;PMS5003;32622;48.202;11.326;2023-09-19T02:21:51;18;16;
46885;PMS5003;32622;48.202;11.326;2023-09-19T02:23:53;18;16;
46885;PMS5003;32622;48.202;11.326;2023-09-19T02:25:56;18;16;
46885;PMS5003;32622;48.202;11.326;2023-09-19T02:27:58;18;16;
46885;PMS5003;32622;48.202;11.326;2023-09-19T02:30:00;18;16;
46885;PMS5003;32622;48.202;11.326;2023-09-19T02:32:02;19;17;
46885;PMS5003;32622;48.202;11.326;2023-09-19T02:34:05;19;17;
46885;PMS5003;32622;48.202;11.326;2023-09-19T02:36:09;19;17;
46885;PMS5003;32622;48.202;11.326;2023-09-19T02:38:11;19;17;
46885;PMS5003;32622;48.202;11.326;2023-09-19T02:40:14;18;17;
46885;PMS5003;32622;48.202;11.326;2023-09-19T02:42:16;18;17;
46885;PMS5003;32622;48.202;11.326;2023-09-19T02:44:19;18;17;
46885;PMS5003;32622;48.202;11.326;2023-09-19T02:46:21;19;17;
46885;PMS5003;32622;48.202;11.326;2023-09-19T02:48:23;19;17;
46885;PMS5003;32622;48.202;11.326;2023-09-19T02:50:25;19;17;
46885;PMS5003;32622;48.202;11.326;2023-09-19T02:52:28;19;18;
46885;PMS5003;32622;48.202;11.326;2023-09-19T02:54:30;19;18;
46885;PMS5003;32622;48.202;11.326;2023-09-19T02:56:32;19;18;
46885;PMS5003;32622;48.202;11.326;2023-09-19T02:58:34;18;18;
46885;PMS5003;32622;48.202;11.326;2023-09-19T03:00:37;18;18;
46885;PMS5003;32622;48.202;11.326;2023-09-19T03:02:39;18;18;
46885;PMS5003;32622;48.202;11.326;2023-09-19T03:04:41;18;18;
46885;PMS5003;32622;48.202;11.326;2023-09-19T03:06:43;18;18;
46885;PMS5003;32622;48.202;11.326;2023-09-19T03:08:46;18;18;
46885;PMS5003;32622;48.202;11.326;2023-09-19T03:10:48;19;19;
46885;PMS5003;32622;48.202;11.326;2023-09-19T03:12:50;19;19;
46885;PMS5003;32622;48.202;11.326;2023-09-19T03:14:53;19;19;
46885;PMS5003;32622;48.202;11.326;2023-09-19T03:16:55;19;19;
46885;PMS5003;32622;48.202;11.326;2023-09-19T03:18:57;19;19;
46885;PMS5003;32622;48.202;11.326;2023-09-19T03:20:59;19;19;
46885;PMS5003;32622;48.202;11.326;2023-09-19T03:23:01;18;18;
46885;PMS5003;32622;48.202;11.326;2023-09-19T03:25:04;18;18;
46885;PMS5003;32622;48.202;11.326;2023-09-19T03:27:08;18;18;
46885;PMS5003;32622;48.202;11.326;2023-09-19T03:29:11;19;19;
46885;PMS5003;32622;48.202;11.326;2023-09-19T03:31:13;19;19;
46885;PMS5003;32622;48.202;11.326;2023-09-19T03:33:15;19;19;
46885;PMS5003;32622;48.202;11.326;2023-09-19T03:35:17;21;21;
46885;PMS5003;32622;48.202;11.326;2023-09-19T03:37:20;21;21;
46885;PMS5003;32622;48.202;11.326;2023-09-19T03:39:22;21;21;
46885;PMS5003;32622;48.202;11.326;2023-09-19T03:41:24;20;20;
46885;PMS5003;32622;48.202;11.326;2023-09-19T03:43:27;20;20;
46885;PMS5003;32622;48.202;11.326;2023-09-19T03:45:29;20;20;
46885;PMS5003;32622;48.202;11.326;2023-09-19T03:47:31;19;19;
46885;PMS5003;32622;48.202;11.326;2023-09-19T03:49:33;19;19;
46885;PMS5003;32622;48.202;11.326;2023-09-19T03:51:35;19;19;
46885;PMS5003;32622;48.202;11.326;2023-09-19T03:53:37;19;19;
46885;PMS5003;32622;48.202;11.326;2023-09-19T03:55:39;19;19;
46885;PMS5003;32622;48.202;11.326;2023-09-19T03:57:41;19;19;
46885;PMS5003;32622;48.202;11.326;2023-09-19T03:59:49;20;20;
46885;PMS5003;32622;48.202;11.326;2023-09-19T04:01:51;20;20;
46885;PMS5003;32622;48.202;11.326;2023-09-19T04:03:53;20;20;
46885;PMS5003;32622;48.202;11.326;2023-09-19T04:05:55;20;20;
46885;PMS5003;32622;48.202;11.326;2023-09-19T04:07:57;20;20;
46885;PMS5003;32622;48.202;11.326;2023-09-19T04:09:59;20;20;
46885;PMS5003;32622;48.202;11.326;2023-09-19T04:12:01;21;21;
46885;PMS5003;32622;48.202;11.326;2023-09-19T04:14:03;21;21;
46885;PMS5003;32622;48.202;11.326;2023-09-19T04:16:06;21;21;
46885;PMS5003;32622;48.202;11.326;2023-09-19T04:18:08;20;20;
46885;PMS5003;32622;48.202;11.326;2023-09-19T04:20:11;20;20;
46885;PMS5003;32622;48.202;11.326;2023-09-19T04:22:13;20;20;
46885;PMS5003;32622;48.202;11.326;2023-09-19T04:24:15;21;20;
46885;PMS5003;32622;48.202;11.326;2023-09-19T04:26:17;21;20;
46885;PMS5003;32622;48.202;11.326;2023-09-19T04:28:19;21;20;
46885;PMS5003;32622;48.202;11.326;2023-09-19T04:30:21;21;20;
46885;PMS5003;32622;48.202;11.326;2023-09-19T04:32:23;21;20;
46885;PMS5003;32622;48.202;11.326;2023-09-19T04:34:26;21;20;
46885;PMS5003;32622;48.202;11.326;2023-09-19T04:36:28;19;18;
46885;PMS5003;32622;48.202;11.326;2023-09-19T04:38:30;19;18;
46885;PMS5003;32622;48.202;11.326;2023-09-19T04:40:32;19;18;
46885;PMS5003;32622;48.202;11.326;2023-09-19T04:42:34;20;19;
46885;PMS5003;32622;48.202;11.326;2023-09-19T04:44:37;20;19;
46885;PMS5003;32622;48.202;11.326;2023-09-19T04:46:39;20;19;
46885;PMS5003;32622;48.202;11.326;2023-09-19T04:48:41;19;18;
46885;PMS5003;32622;48.202;11.326;2023-09-19T04:50:43;19;18;
46885;PMS5003;32622;48.202;11.326;2023-09-19T04:52:45;19;18;
46885;PMS5003;32622;48.202;11.326;2023-09-19T04:54:50;19;18;
46885;PMS5003;32622;48.202;11.326;2023-09-19T04:56:52;19;18;
46885;PMS5003;32622;48.202;11.326;2023-09-19T04:58:54;19;18;
46885;PMS5003;32622;48.202;11.326;2023-09-19T05:00:56;18;17;
46885;PMS5003;32622;48.202;11.326;2023-09-19T05:02:58;18;17;
46885;PMS5003;32622;48.202;11.326;2023-09-19T05:05:00;18;17;
46885;PMS5003;32622;48.202;11.326;2023-09-19T05:07:03;17;16;
46885;PMS5003;32622;48.202;11.326;2023-09-19T05:09:05;17;16;
46885;PMS5003;32622;48.202;11.326;2023-09-19T05:11:07;17;16;
46885;PMS5003;32622;48.202;11.326;2023-09-19T05:13:09;18;15;
46885;PMS5003;32622;48.202;11.326;2023-09-19T05:15:12;18;15;
46885;PMS5003;32622;48.202;11.326;2023-09-19T05:17:14;18;15;
46885;PMS5003;32622;48.202;11.326;2023-09-19T05:19:16;17;15;
46885;PMS5003;32622;48.202;11.326;2023-09-19T05:21:18;17;15;
46885;PMS5003;32622;48.202;11.326;2023-09-19T05:23:21;17;15;
46885;PMS5003;32622;48.202;11.326;2023-09-19T05:25:23;16;15;
46885;PMS5003;32622;48.202;11.326;2023-09-19T05:27:25;17;16;
46885;PMS5003;32622;48.202;11.326;2023-09-19T05:29:27;17;16;
46885;PMS5003;32622;48.202;11.326;2023-09-19T05:31:29;17;16;
46885;PMS5003;32622;48.202;11.326;2023-09-19T05:33:31;17;16;
46885;PMS5003;32622;48.202;11.326;2023-09-19T05:35:33;17;16;
46885;PMS5003;32622;48.202;11.326;2023-09-19T05:37:35;17;16;
46885;PMS5003;32622;48.202;11.326;2023-09-19T05:39:37;17;16;
46885;PMS5003;32622;48.202;11.326;2023-09-19T05:41:40;16;15;
46885;PMS5003;32622;48.202;11.326;2023-09-19T05:43:42;16;14;
46885;PMS5003;32622;48.202;11.326;2023-09-19T05:45:44;16;14;
46885;PMS5003;32622;48.202;11.326;2023-09-19T05:47:46;17;15;
46885;PMS5003;32622;48.202;11.326;2023-09-19T05:49:48;17;16;
46885;PMS5003;32622;48.202;11.326;2023-09-19T05:51:50;17;16;
46885;PMS5003;32622;48.202;11.326;2023-09-19T05:53:52;17;16;
46885;PMS5003;32622;48.202;11.326;2023-09-19T05:55:54;16;14;
46885;PMS5003;32622;48.202;11.326;2023-09-19T05:57:56;16;14;
46885;PMS5003;32622;48.202;11.326;2023-09-19T05:59:59;16;14;
46885;PMS5003;32622;48.202;11.326;2023-09-19T06:02:01;17;16;
46885;PMS5003;32622;48.202;11.326;2023-09-19T06:04:03;17;16;
46885;PMS5003;32622;48.202;11.326;2023-09-19T06:06:05;17;16;
46885;PMS5003;32622;48.202;11.326;2023-09-19T06:08:07;18;17;
46885;PMS5003;32622;48.202;11.326;2023-09-19T06:10:10;18;17;
46885;PMS5003;32622;48.202;11.326;2023-09-19T06:12:12;18;17;
46885;PMS5003;32622;48.202;11.326;2023-09-19T06:14:14;18;18;
46885;PMS5003;32622;48.202;11.326;2023-09-19T06:16:16;18;18;
46885;PMS5003;32622;48.202;11.326;2023-09-19T06:18:18;18;18;
46885;PMS5003;32622;48.202;11.326;2023-09-19T06:20:21;17;17;
46885;PMS5003;32622;48.202;11.326;2023-09-19T06:22:24;17;17;
46885;PMS5003;32622;48.202;11.326;2023-09-19T06:24:26;17;17;
46885;PMS5003;32622;48.202;11.326;2023-09-19T06:26:28;18;17;
46885;PMS5003;32622;48.202;11.326;2023-09-19T06:28:30;18;17;
46885;PMS5003;32622;48.202;11.326;2023-09-19T06:30:32;18;17;
46885;PMS5003;32622;48.202;11.326;2023-09-19T06:32:34;18;17;
46885;PMS5003;32622;48.202;11.326;2023-09-19T06:34:37;18;17;
46885;PMS5003;32622;48.202;11.326;2023-09-19T06:36:39;18;17;
46885;PMS5003;32622;48.202;11.326;2023-09-19T06:38:41;19;18;
46885;PMS5003;32622;48.202;11.326;2023-09-19T06:40:43;19;18;
46885;PMS5003;32622;48.202;11.326;2023-09-19T06:42:46;19;18;
46885;PMS5003;32622;48.202;11.326;2023-09-19T06:44:51;18;17;
46885;PMS5003;32622;48.202;11.326;2023-09-19T06:46:53;18;17;
46885;PMS5003;32622;48.202;11.326;2023-09-19T06:48:55;18;17;
46885;PMS5003;32622;48.202;11.326;2023-09-19T06:50:57;19;17;
46885;PMS5003;32622;48.202;11.326;2023-09-19T06:53:00;19;17;
46885;PMS5003;32622;48.202;11.326;2023-09-19T06:55:02;19;17;
46885;PMS5003;32622;48.202;11.326;2023-09-19T06:57:05;20;17;
46885;PMS5003;32622;48.202;11.326;2023-09-19T06:59:07;20;17;
46885;PMS5003;32622;48.202;11.326;2023-09-19T07:01:09;20;17;
46885;PMS5003;32622;48.202;11.326;2023-09-19T07:03:13;21;17;
46885;PMS5003;32622;48.202;11.326;2023-09-19T07:05:15;21;17;
46885;PMS5003;32622;48.202;11.326;2023-09-19T07:07:17;21;17;
46885;PMS5003;32622;48.202;11.326;2023-09-19T07:09:19;22;16;
46885;PMS5003;32622;48.202;11.326;2023-09-19T07:11:22;22;16;
46885;PMS5003;32622;48.202;11.326;2023-09-19T07:13:24;22;16;
46885;PMS5003;32622;48.202;11.326;2023-09-19T07:15:26;20;15;
46885;PMS5003;32622;48.202;11.326;2023-09-19T07:17:29;20;15;
46885;PMS5003;32622;48.202;11.326;2023-09-19T07:19:31;20;15;
46885;PMS5003;32622;48.202;11.326;2023-09-19T07:21:33;20;15;
46885;PMS5003;32622;48.202;11.326;2023-09-19T07:23:35;20;15;
46885;PMS5003;32622;48.202;11.326;2023-09-19T07:25:37;20;15;
46885;PMS5003;32622;48.202;11.326;2023-09-19T07:27:39;21;17;
46885;PMS5003;32622;48.202;11.326;2023-09-19T07:29:42;21;17;
46885;PMS5003;32622;48.202;11.326;2023-09-19T07:31:44;21;17;
46885;PMS5003;32622;48.202;11.326;2023-09-19T07:33:46;21;16;
46885;PMS5003;32622;48.202;11.326;2023-09-19T07:35:48;21;16;
46885;PMS5003;32622;48.202;11.326;2023-09-19T07:37:50;21;16;
46885;PMS5003;32622;48.202;11.326;2023-09-19T07:39:52;21;16;
46885;PMS5003;32622;48.202;11.326;2023-09-19T07:41:54;21;16;
46885;PMS5003;32622;48.202;11.326;2023-09-19T07:43:56;21;16;
46885;PMS5003;32622;48.202;11.326;2023-09-19T07:46:02;22;16;
46885;PMS5003;32622;48.202;11.326;2023-09-19T07:48:05;23;17;
46885;PMS5003;32622;48.202;11.326;2023-09-19T07:50:09;23;17;
46885;PMS5003;32622;48.202;11.326;2023-09-19T07:52:11;21;17;
46885;PMS5003;32622;48.202;11.326;2023-09-19T07:54:13;21;17;
46885;PMS5003;32622;48.202;11.326;2023-09-19T07:56:15;21;17;
46885;PMS5003;32622;48.202;11.326;2023-09-19T07:58:17;20;16;
46885;PMS5003;32622;48.202;11.326;2023-09-19T08:00:19;20;16;
46885;PMS5003;32622;48.202;11.326;2023-09-19T08:02:22;20;16;
46885;PMS5003;32622;48.202;11.326;2023-09-19T08:04:24;18;15;
46885;PMS5003;32622;48.202;11.326;2023-09-19T08:06:26;18;15;
46885;PMS5003;32622;48.202;11.326;2023-09-19T08:08:28;17;14;
46885;PMS5003;32622;48.202;11.326;2023-09-19T08:10:30;17;14;
46885;PMS5003;32622;48.202;11.326;2023-09-19T08:12:32;17;14;
46885;PMS5003;32622;48.202;11.326;2023-09-19T08:14:34;17;14;
46885;PMS5003;32622;48.202;11.326;2023-09-19T08:16:37;17;15;
46885;PMS5003;32622;48.202;11.326;2023-09-19T08:18:39;17;15;
46885;PMS5003;32622;48.202;11.326;2023-09-19T08:20:41;17;15;
46885;PMS5003;32622;48.202;11.326;2023-09-19T08:22:44;19;16;
46885;PMS5003;32622;48.202;11.326;2023-09-19T08:24:48;19;16;
46885;PMS5003;32622;48.202;11.326;2023-09-19T08:26:50;19;16;
46885;PMS5003;32622;48.202;11.326;2023-09-19T08:28:53;19;16;
46885;PMS5003;32622;48.202;11.326;2023-09-19T08:30:55;19;16;
46885;PMS5003;32622;48.202;11.326;2023-09-19T08:32:57;19;16;
46885;PMS5003;32622;48.202;11.326;2023-09-19T08:35:00;16;15;
46885;PMS5003;32622;48.202;11.326;2023-09-19T08:37:02;16;15;
46885;PMS5003;32622;48.202;11.326;2023-09-19T08:39:04;16;15;
46885;PMS5003;32622;48.202;11.326;2023-09-19T08:41:07;16;15;
46885;PMS5003;32622;48.202;11.326;2023-09-19T08:43:09;16;15;
46885;PMS5003;32622;48.202;11.326;2023-09-19T08:45:12;16;15;
46885;PMS5003;32622;48.202;11.326;2023-09-19T08:47:15;17;15;
46885;PMS5003;32622;48.202;11.326;2023-09-19T08:49:19;17;15;
46885;PMS5003;32622;48.202;11.326;2023-09-19T08:51:26;17;15;
46885;PMS5003;32622;48.202;11.326;2023-09-19T08:53:39;17;16;
46885;PMS5003;32622;48.202;11.326;2023-09-19T08:55:43;17;16;
46885;PMS5003;32622;48.202;11.326;2023-09-19T08:57:49;17;16;
46885;PMS5003;32622;48.202;11.326;2023-09-19T08:59:52;18;17;
46885;PMS5003;32622;48.202;11.326;2023-09-19T09:01:55;18;17;
46885;PMS5003;32622;48.202;11.326;2023-09-19T09:03:59;18;17;
46885;PMS5003;32622;48.202;11.326;2023-09-19T09:06:03;19;17;
46885;PMS5003;32622;48.202;11.326;2023-09-19T09:08:06;19;17;
46885;PMS5003;32622;48.202;11.326;2023-09-19T09:10:09;19;17;
46885;PMS5003;32622;48.202;11.326;2023-09-19T09:12:12;18;18;
46885;PMS5003;32622;48.202;11.326;2023-09-19T09:14:15;18;18;
46885;PMS5003;32622;48.202;11.326;2023-09-19T09:16:17;18;18;
46885;PMS5003;32622;48.202;11.326;2023-09-19T09:18:19;18;18;
46885;PMS5003;32622;48.202;11.326;2023-09-19T09:20:22;17;17;
46885;PMS5003;32622;48.202;11.326;2023-09-19T09:22:24;17;17;
46885;PMS5003;32622;48.202;11.326;2023-09-19T09:24:26;16;16;
46885;PMS5003;32622;48.202;11.326;2023-09-19T09:26:45;16;16;
46885;PMS5003;32622;48.202;11.326;2023-09-19T09:28:47;16;16;
46885;PMS5003;32622;48.202;11.326;2023-09-19T09:30:49;17;17;
46885;PMS5003;32622;48.202;11.326;2023-09-19T09:32:56;17;17;
46885;PMS5003;32622;48.202;11.326;2023-09-19T09:35:09;17;17;
46885;PMS5003;32622;48.202;11.326;2023-09-19T09:37:13;18;18;
46885;PMS5003;32622;48.202;11.326;2023-09-19T09:39:15;18;18;
46885;PMS5003;32622;48.202;11.326;2023-09-19T09:41:35;18;18;
46885;PMS5003;32622;48.202;11.326;2023-09-19T09:43:38;18;18;
46885;PMS5003;32622;48.202;11.326;2023-09-19T09:45:41;18;18;
46885;PMS5003;32622;48.202;11.326;2023-09-19T09:47:44;18;18;
46885;PMS5003;32622;48.202;11.326;2023-09-19T09:49:47;18;18;
46885;PMS5003;32622;48.202;11.326;2023-09-19T09:51:50;18;18;
46885;PMS5003;32622;48.202;11.326;2023-09-19T09:54:09;18;18;
46885;PMS5003;32622;48.202;11.326;2023-09-19T09:56:12;19;19;
46885;PMS5003;32622;48.202;11.326;2023-09-19T09:58:17;19;19;
46885;PMS5003;32622;48.202;11.326;2023-09-19T10:00:20;19;19;
46885;PMS5003;32622;48.202;11.326;2023-09-19T10:02:25;17;17;
46885;PMS5003;32622;48.202;11.326;2023-09-19T10:04:28;17;17;
46885;PMS5003;32622;48.202;11.326;2023-09-19T10:06:40;17;17;
46885;PMS5003;32622;48.202;11.326;2023-09-19T10:08:46;17;17;
46885;PMS5003;32622;48.202;11.326;2023-09-19T10:10:59;18;18;
46885;PMS5003;32622;48.202;11.326;2023-09-19T10:13:01;18;18;
46885;PMS5003;32622;48.202;11.326;2023-09-19T10:15:04;19;19;
46885;PMS5003;32622;48.202;11.326;2023-09-19T10:17:09;19;19;
46885;PMS5003;32622;48.202;11.326;2023-09-19T10:19:14;19;19;
46885;PMS5003;32622;48.202;11.326;2023-09-19T10:21:21;19;19;
46885;PMS5003;32622;48.202;11.326;2023-09-19T10:23:23;19;19;
46885;PMS5003;32622;48.202;11.326;2023-09-19T10:25:28;18;18;
46885;PMS5003;32622;48.202;11.326;2023-09-19T10:27:31;18;18;
46885;PMS5003;32622;48.202;11.326;2023-09-19T10:29:34;18;18;
46885;PMS5003;32622;48.202;11.326;2023-09-19T10:31:40;18;18;
46885;PMS5003;32622;48.202;11.326;2023-09-19T10:33:43;17;17;
46885;PMS5003;32622;48.202;11.326;2023-09-19T10:35:47;17;17;
46885;PMS5003;32622;48.202;11.326;2023-09-19T10:37:51;17;17;
46885;PMS5003;32622;48.202;11.326;2023-09-19T10:39:55;16;16;
46885;PMS5003;32622;48.202;11.326;2023-09-19T10:42:01;16;16;
46885;PMS5003;32622;48.202;11.326;2023-09-19T10:44:04;16;16;
46885;PMS5003;32622;48.202;11.326;2023-09-19T10:46:07;17;17;
46885;PMS5003;32622;48.202;11.326;2023-09-19T10:48:09;17;17;
46885;PMS5003;32622;48.202;11.326;2023-09-19T10:50:17;17;17;
46885;PMS5003;32622;48.202;11.326;2023-09-19T10:52:22;18;17;
46885;PMS5003;32622;48.202;11.326;2023-09-19T10:54:29;17;16;
46885;PMS5003;32622;48.202;11.326;2023-09-19T10:56:44;20;17;
46885;PMS5003;32622;48.202;11.326;2023-09-19T10:58:48;20;17;
46885;PMS5003;32622;48.202;11.326;2023-09-19T11:00:51;21;18;
46885;PMS5003;32622;48.202;11.326;2023-09-19T11:05:26;20;17;
46885;PMS5003;32622;48.202;11.326;2023-09-19T11:07:28;20;17;
46885;PMS5003;32622;48.202;11.326;2023-09-19T11:09:46;19;17;
46885;PMS5003;32622;48.202;11.326;2023-09-19T11:11:50;19;17;
46885;PMS5003;32622;48.202;11.326;2023-09-19T11:14:11;19;17;
46885;PMS5003;32622;48.202;11.326;2023-09-19T11:16:18;20;18;
46885;PMS5003;32622;48.202;11.326;2023-09-19T11:21:02;20;18;
46885;PMS5003;32622;48.202;11.326;2023-09-19T11:23:34;20;18;
46885;PMS5003;32622;48.202;11.326;2023-09-19T11:25:43;20;18;
46885;PMS5003;32622;48.202;11.326;2023-09-19T11:28:01;20;18;
46885;PMS5003;32622;48.202;11.326;2023-09-19T11:30:29;20;18;
46885;PMS5003;32622;48.202;11.326;2023-09-19T11:35:06;20;18;
46885;PMS5003;32622;48.202;11.326;2023-09-19T11:39:42;19;17;
46885;PMS5003;32622;48.202;11.326;2023-09-19T11:42:25;19;17;
46885;PMS5003;32622;48.202;11.326;2023-09-19T11:44:43;18;17;
46885;PMS5003;32622;48.202;11.326;2023-09-19T11:46:53;18;17;
46885;PMS5003;32622;48.202;11.326;2023-09-19T11:49:04;18;17;
46885;PMS5003;32622;48.202;11.326;2023-09-19T11:51:10;18;16;
46885;PMS5003;32622;48.202;11.326;2023-09-19T11:53:14;18;16;
46885;PMS5003;32622;48.202;11.326;2023-09-19T11:55:16;18;16;
46885;PMS5003;32622;48.202;11.326;2023-09-19T11:57:20;17;16;
46885;PMS5003;32622;48.202;11.326;2023-09-19T11:59:23;17;16;
46885;PMS5003;32622;48.202;11.326;2023-09-19T12:01:29;17;16;
46885;PMS5003;32622;48.202;11.326;2023-09-19T12:03:32;17;16;
46885;PMS5003;32622;48.202;11.326;2023-09-19T12:05:39;17;16;
46885;PMS5003;32622;48.202;11.326;2023-09-19T12:07:42;17;16;
46885;PMS5003;32622;48.202;11.326;2023-09-19T12:09:45;18;17;
46885;PMS5003;32622;48.202;11.326;2023-09-19T12:11:49;18;17;
46885;PMS5003;32622;48.202;11.326;2023-09-19T12:13:51;18;17;
46885;PMS5003;32622;48.202;11.326;2023-09-19T12:15:53;18;17;
46885;PMS5003;32622;48.202;11.326;2023-09-19T12:17:56;18;17;
46885;PMS5003;32622;48.202;11.326;2023-09-19T12:19:58;18;17;
46885;PMS5003;32622;48.202;11.326;2023-09-19T12:22:01;18;17;
46885;PMS5003;32622;48.202;11.326;2023-09-19T12:24:04;18;17;
46885;PMS5003;32622;48.202;11.326;2023-09-19T12:26:08;18;17;
46885;PMS5003;32622;48.202;11.326;2023-09-19T12:28:11;18;17;
46885;PMS5003;32622;48.202;11.326;2023-09-19T12:30:13;18;17;
46885;PMS5003;32622;48.202;11.326;2023-09-19T12:32:17;18;17;
46885;PMS5003;32622;48.202;11.326;2023-09-19T12:34:20;18;17;
46885;PMS5003;32622;48.202;11.326;2023-09-19T12:36:24;18;17;
46885;PMS5003;32622;48.202;11.326;2023-09-19T12:38:26;18;17;
46885;PMS5003;32622;48.202;11.326;2023-09-19T12:40:29;18;17;
46885;PMS5003;32622;48.202;11.326;2023-09-19T12:42:31;18;17;
46885;PMS5003;32622;48.202;11.326;2023-09-19T12:44:34;18;17;
46885;PMS5003;32622;48.202;11.326;2023-09-19T12:46:37;18;17;
46885;PMS5003;32622;48.202;11.326;2023-09-19T12:48:39;18;17;
46885;PMS5003;32622;48.202;11.326;2023-09-19T12:50:58;18;17;
46885;PMS5003;32622;48.202;11.326;2023-09-19T12:53:01;18;18;
46885;PMS5003;32622;48.202;11.326;2023-09-19T12:55:04;18;18;
46885;PMS5003;32622;48.202;11.326;2023-09-19T12:57:06;18;18;
46885;PMS5003;32622;48.202;11.326;2023-09-19T12:59:09;18;18;
46885;PMS5003;32622;48.202;11.326;2023-09-19T13:01:14;18;18;
46885;PMS5003;32622;48.202;11.326;2023-09-19T13:03:17;18;18;
46885;PMS5003;32622;48.202;11.326;2023-09-19T13:05:46;19;18;
46885;PMS5003;32622;48.202;11.326;2023-09-19T13:07:49;19;18;
46885;PMS5003;32622;48.202;11.326;2023-09-19T13:10:02;19;18;
46885;PMS5003;32622;48.202;11.326;2023-09-19T13:12:05;17;16;
46885;PMS5003;32622;48.202;11.326;2023-09-19T13:14:39;17;16;
46885;PMS5003;32622;48.202;11.326;2023-09-19T13:16:52;17;16;
46885;PMS5003;32622;48.202;11.326;2023-09-19T13:18:56;18;17;
46885;PMS5003;32622;48.202;11.326;2023-09-19T13:21:06;18;17;
46885;PMS5003;32622;48.202;11.326;2023-09-19T13:23:08;18;17;
46885;PMS5003;32622;48.202;11.326;2023-09-19T13:25:28;18;17;
46885;PMS5003;32622;48.202;11.326;2023-09-19T13:27:30;18;17;
46885;PMS5003;32622;48.202;11.326;2023-09-19T13:29:32;18;17;
46885;PMS5003;32622;48.202;11.326;2023-09-19T13:31:34;18;16;
46885;PMS5003;32622;48.202;11.326;2023-09-19T13:33:42;18;16;
46885;PMS5003;32622;48.202;11.326;2023-09-19T13:35:44;18;16;
46885;PMS5003;32622;48.202;11.326;2023-09-19T13:37:47;18;17;
46885;PMS5003;32622;48.202;11.326;2023-09-19T13:39:49;18;17;
46885;PMS5003;32622;48.202;11.326;2023-09-19T13:41:51;18;17;